sensor_id;sensor_type;location;lat;lon;timestamp;P1;durP1;ratioP1;P2;durP2;ratioP2
17345;SDS011;8790;53.590;10.002;2022-07-17T00:00:18;7.50;;;2.40;;
17345;SDS011;8790;53.590;10.002;2022-07-17T00:02:50;4.63;;;1.73;;
17345;SDS011;8790;53.590;10.002;2022-07-17T00:05:22;7.13;;;1.80;;
17345;SDS011;8790;53.590;10.002;2022-07-17T00:07:55;6.10;;;1.90;;
17345;SDS011;8790;53.590;10.002;2022-07-17T00:10:27;5.07;;;1.90;;
17345;SDS011;8790;53.590;10.002;2022-07-17T00:12:59;4.67;;;2.03;;
17345;SDS011;8790;53.590;10.002;2022-07-17T00:15:31;6.43;;;1.90;;
17345;SDS011;8790;53.590;10.002;2022-07-17T00:18:03;6.03;;;1.97;;
17345;SDS011;8790;53.590;10.002;2022-07-17T00:20:36;5.47;;;1.80;;
17345;SDS011;8790;53.590;10.002;2022-07-17T00:23:09;4.73;;;2.20;;
17345;SDS011;8790;53.590;10.002;2022-07-17T00:25:41;4.70;;;1.83;;
17345;SDS011;8790;53.590;10.002;2022-07-17T00:28:13;5.43;;;2.10;;
17345;SDS011;8790;53.590;10.002;2022-07-17T00:30:44;5.93;;;2.17;;
17345;SDS011;8790;53.590;10.002;2022-07-17T00:33:16;5.77;;;1.97;;
17345;SDS011;8790;53.590;10.002;2022-07-17T00:35:48;5.03;;;2.23;;
17345;SDS011;8790;53.590;10.002;2022-07-17T00:38:21;7.00;;;2.03;;
17345;SDS011;8790;53.590;10.002;2022-07-17T00:40:53;6.37;;;2.00;;
17345;SDS011;8790;53.590;10.002;2022-07-17T00:43:26;8.27;;;2.23;;
17345;SDS011;8790;53.590;10.002;2022-07-17T00:45:59;6.00;;;2.20;;
17345;SDS011;8790;53.590;10.002;2022-07-17T00:48:32;6.13;;;2.60;;
17345;SDS011;8790;53.590;10.002;2022-07-17T00:51:04;7.00;;;2.13;;
17345;SDS011;8790;53.590;10.002;2022-07-17T00:53:38;6.90;;;2.10;;
17345;SDS011;8790;53.590;10.002;2022-07-17T00:56:12;5.30;;;2.03;;
17345;SDS011;8790;53.590;10.002;2022-07-17T00:58:45;3.67;;;2.03;;
17345;SDS011;8790;53.590;10.002;2022-07-17T01:01:20;6.97;;;2.13;;
17345;SDS011;8790;53.590;10.002;2022-07-17T01:03:52;6.00;;;2.23;;
17345;SDS011;8790;53.590;10.002;2022-07-17T01:06:23;8.00;;;2.37;;
17345;SDS011;8790;53.590;10.002;2022-07-17T01:08:57;5.57;;;2.20;;
17345;SDS011;8790;53.590;10.002;2022-07-17T01:11:28;6.93;;;2.10;;
17345;SDS011;8790;53.590;10.002;2022-07-17T01:14:00;4.77;;;1.90;;
17345;SDS011;8790;53.590;10.002;2022-07-17T01:16:33;6.87;;;2.23;;
17345;SDS011;8790;53.590;10.002;2022-07-17T01:19:05;6.70;;;2.60;;
17345;SDS011;8790;53.590;10.002;2022-07-17T01:21:41;3.43;;;2.00;;
17345;SDS011;8790;53.590;10.002;2022-07-17T01:24:14;7.67;;;2.40;;
17345;SDS011;8790;53.590;10.002;2022-07-17T01:26:47;5.80;;;2.20;;
17345;SDS011;8790;53.590;10.002;2022-07-17T01:29:19;8.90;;;2.33;;
17345;SDS011;8790;53.590;10.002;2022-07-17T01:31:51;9.73;;;2.53;;
17345;SDS011;8790;53.590;10.002;2022-07-17T01:34:23;4.83;;;2.10;;
17345;SDS011;8790;53.590;10.002;2022-07-17T01:36:56;5.43;;;2.20;;
17345;SDS011;8790;53.590;10.002;2022-07-17T01:39:28;6.53;;;2.50;;
17345;SDS011;8790;53.590;10.002;2022-07-17T01:42:17;7.57;;;2.20;;
17345;SDS011;8790;53.590;10.002;2022-07-17T01:44:49;7.27;;;2.33;;
17345;SDS011;8790;53.590;10.002;2022-07-17T01:47:21;6.40;;;2.07;;
17345;SDS011;8790;53.590;10.002;2022-07-17T01:49:55;5.23;;;2.30;;
17345;SDS011;8790;53.590;10.002;2022-07-17T01:52:29;3.77;;;2.10;;
17345;SDS011;8790;53.590;10.002;2022-07-17T01:55:00;3.77;;;1.97;;
17345;SDS011;8790;53.590;10.002;2022-07-17T01:57:33;6.27;;;2.33;;
17345;SDS011;8790;53.590;10.002;2022-07-17T02:00:06;6.73;;;2.50;;
17345;SDS011;8790;53.590;10.002;2022-07-17T02:02:40;10.53;;;2.73;;
17345;SDS011;8790;53.590;10.002;2022-07-17T02:05:12;5.67;;;2.47;;
17345;SDS011;8790;53.590;10.002;2022-07-17T02:07:45;5.70;;;2.27;;
17345;SDS011;8790;53.590;10.002;2022-07-17T02:10:17;5.37;;;2.07;;
17345;SDS011;8790;53.590;10.002;2022-07-17T02:12:49;9.77;;;4.37;;
17345;SDS011;8790;53.590;10.002;2022-07-17T02:15:21;5.80;;;2.30;;
17345;SDS011;8790;53.590;10.002;2022-07-17T02:17:52;6.93;;;2.43;;
17345;SDS011;8790;53.590;10.002;2022-07-17T02:20:25;5.23;;;2.43;;
17345;SDS011;8790;53.590;10.002;2022-07-17T02:22:58;7.97;;;2.23;;
17345;SDS011;8790;53.590;10.002;2022-07-17T02:25:30;8.03;;;2.43;;
17345;SDS011;8790;53.590;10.002;2022-07-17T02:28:01;6.50;;;2.30;;
17345;SDS011;8790;53.590;10.002;2022-07-17T02:30:33;6.97;;;2.10;;
17345;SDS011;8790;53.590;10.002;2022-07-17T02:33:05;4.77;;;2.00;;
17345;SDS011;8790;53.590;10.002;2022-07-17T02:35:37;5.67;;;2.20;;
17345;SDS011;8790;53.590;10.002;2022-07-17T02:38:10;6.90;;;2.20;;
17345;SDS011;8790;53.590;10.002;2022-07-17T02:40:42;6.70;;;1.73;;
17345;SDS011;8790;53.590;10.002;2022-07-17T02:43:14;5.90;;;2.20;;
17345;SDS011;8790;53.590;10.002;2022-07-17T02:45:46;4.17;;;2.20;;
17345;SDS011;8790;53.590;10.002;2022-07-17T02:48:17;5.67;;;1.97;;
17345;SDS011;8790;53.590;10.002;2022-07-17T02:50:49;3.27;;;1.80;;
17345;SDS011;8790;53.590;10.002;2022-07-17T02:53:22;7.00;;;2.57;;
17345;SDS011;8790;53.590;10.002;2022-07-17T02:55:54;7.80;;;1.97;;
17345;SDS011;8790;53.590;10.002;2022-07-17T02:58:26;6.80;;;2.37;;
17345;SDS011;8790;53.590;10.002;2022-07-17T03:00:58;4.20;;;1.87;;
17345;SDS011;8790;53.590;10.002;2022-07-17T03:03:29;8.17;;;2.10;;
17345;SDS011;8790;53.590;10.002;2022-07-17T03:06:01;6.90;;;2.00;;
17345;SDS011;8790;53.590;10.002;2022-07-17T03:08:34;5.37;;;2.10;;
17345;SDS011;8790;53.590;10.002;2022-07-17T03:11:06;4.97;;;2.10;;
17345;SDS011;8790;53.590;10.002;2022-07-17T03:13:38;6.67;;;2.53;;
17345;SDS011;8790;53.590;10.002;2022-07-17T03:16:10;7.67;;;2.43;;
17345;SDS011;8790;53.590;10.002;2022-07-17T03:18:41;6.50;;;1.90;;
17345;SDS011;8790;53.590;10.002;2022-07-17T03:21:13;5.30;;;2.00;;
17345;SDS011;8790;53.590;10.002;2022-07-17T03:23:46;6.60;;;2.10;;
17345;SDS011;8790;53.590;10.002;2022-07-17T03:26:18;4.97;;;1.90;;
17345;SDS011;8790;53.590;10.002;2022-07-17T03:28:50;6.50;;;1.80;;
17345;SDS011;8790;53.590;10.002;2022-07-17T03:31:21;5.93;;;2.00;;
17345;SDS011;8790;53.590;10.002;2022-07-17T03:33:53;4.77;;;2.27;;
17345;SDS011;8790;53.590;10.002;2022-07-17T03:36:25;7.53;;;1.90;;
17345;SDS011;8790;53.590;10.002;2022-07-17T03:38:58;5.33;;;2.13;;
17345;SDS011;8790;53.590;10.002;2022-07-17T03:41:30;4.60;;;2.00;;
17345;SDS011;8790;53.590;10.002;2022-07-17T03:44:02;5.63;;;1.87;;
17345;SDS011;8790;53.590;10.002;2022-07-17T03:46:34;6.67;;;2.03;;
17345;SDS011;8790;53.590;10.002;2022-07-17T03:49:06;5.67;;;1.70;;
17345;SDS011;8790;53.590;10.002;2022-07-17T03:51:37;5.80;;;1.90;;
17345;SDS011;8790;53.590;10.002;2022-07-17T03:54:10;7.00;;;2.20;;
17345;SDS011;8790;53.590;10.002;2022-07-17T03:56:42;5.83;;;2.10;;
17345;SDS011;8790;53.590;10.002;2022-07-17T03:59:14;5.40;;;1.87;;
17345;SDS011;8790;53.590;10.002;2022-07-17T04:01:46;4.43;;;1.73;;
17345;SDS011;8790;53.590;10.002;2022-07-17T04:04:18;5.40;;;1.87;;
17345;SDS011;8790;53.590;10.002;2022-07-17T04:06:50;4.30;;;1.93;;
17345;SDS011;8790;53.590;10.002;2022-07-17T04:09:23;5.40;;;1.87;;
17345;SDS011;8790;53.590;10.002;2022-07-17T04:11:55;5.07;;;2.00;;
17345;SDS011;8790;53.590;10.002;2022-07-17T04:14:26;3.37;;;1.70;;
17345;SDS011;8790;53.590;10.002;2022-07-17T04:16:58;5.03;;;1.93;;
17345;SDS011;8790;53.590;10.002;2022-07-17T04:19:30;4.40;;;1.90;;
17345;SDS011;8790;53.590;10.002;2022-07-17T04:22:01;5.60;;;1.80;;
17345;SDS011;8790;53.590;10.002;2022-07-17T04:24:34;7.73;;;2.10;;
17345;SDS011;8790;53.590;10.002;2022-07-17T04:27:06;6.10;;;2.30;;
17345;SDS011;8790;53.590;10.002;2022-07-17T04:29:39;4.70;;;1.90;;
17345;SDS011;8790;53.590;10.002;2022-07-17T04:32:11;7.07;;;2.10;;
17345;SDS011;8790;53.590;10.002;2022-07-17T04:34:43;5.90;;;1.77;;
17345;SDS011;8790;53.590;10.002;2022-07-17T04:37:14;5.53;;;2.10;;
17345;SDS011;8790;53.590;10.002;2022-07-17T04:39:47;5.80;;;1.97;;
17345;SDS011;8790;53.590;10.002;2022-07-17T04:42:19;7.73;;;2.00;;
17345;SDS011;8790;53.590;10.002;2022-07-17T04:44:51;4.70;;;1.90;;
17345;SDS011;8790;53.590;10.002;2022-07-17T04:47:23;5.40;;;2.00;;
17345;SDS011;8790;53.590;10.002;2022-07-17T04:49:54;4.03;;;1.90;;
17345;SDS011;8790;53.590;10.002;2022-07-17T04:52:26;6.03;;;1.80;;
17345;SDS011;8790;53.590;10.002;2022-07-17T04:54:59;6.10;;;1.90;;
17345;SDS011;8790;53.590;10.002;2022-07-17T04:57:31;4.90;;;1.80;;
17345;SDS011;8790;53.590;10.002;2022-07-17T05:00:03;4.60;;;1.90;;
17345;SDS011;8790;53.590;10.002;2022-07-17T05:02:36;5.30;;;2.07;;
17345;SDS011;8790;53.590;10.002;2022-07-17T05:05:08;4.00;;;1.83;;
17345;SDS011;8790;53.590;10.002;2022-07-17T05:07:40;3.80;;;1.77;;
17345;SDS011;8790;53.590;10.002;2022-07-17T05:10:14;2.93;;;1.67;;
17345;SDS011;8790;53.590;10.002;2022-07-17T05:12:46;6.23;;;2.00;;
17345;SDS011;8790;53.590;10.002;2022-07-17T05:15:18;4.27;;;2.00;;
17345;SDS011;8790;53.590;10.002;2022-07-17T05:17:49;3.93;;;1.97;;
17345;SDS011;8790;53.590;10.002;2022-07-17T05:20:21;6.60;;;2.10;;
17345;SDS011;8790;53.590;10.002;2022-07-17T05:22:53;5.47;;;2.00;;
17345;SDS011;8790;53.590;10.002;2022-07-17T05:25:26;5.93;;;1.97;;
17345;SDS011;8790;53.590;10.002;2022-07-17T05:27:58;4.50;;;1.90;;
17345;SDS011;8790;53.590;10.002;2022-07-17T05:30:30;4.63;;;1.87;;
17345;SDS011;8790;53.590;10.002;2022-07-17T05:33:01;4.27;;;1.80;;
17345;SDS011;8790;53.590;10.002;2022-07-17T05:35:33;5.20;;;2.23;;
17345;SDS011;8790;53.590;10.002;2022-07-17T05:38:05;8.03;;;2.27;;
17345;SDS011;8790;53.590;10.002;2022-07-17T05:40:38;4.37;;;2.20;;
17345;SDS011;8790;53.590;10.002;2022-07-17T05:43:10;6.90;;;2.07;;
17345;SDS011;8790;53.590;10.002;2022-07-17T05:45:42;4.50;;;1.90;;
17345;SDS011;8790;53.590;10.002;2022-07-17T05:48:13;7.27;;;2.10;;
17345;SDS011;8790;53.590;10.002;2022-07-17T05:50:45;4.70;;;2.13;;
17345;SDS011;8790;53.590;10.002;2022-07-17T05:53:17;6.27;;;1.80;;
17345;SDS011;8790;53.590;10.002;2022-07-17T05:55:50;3.63;;;1.73;;
17345;SDS011;8790;53.590;10.002;2022-07-17T05:58:22;4.17;;;1.93;;
17345;SDS011;8790;53.590;10.002;2022-07-17T06:00:54;5.47;;;1.97;;
17345;SDS011;8790;53.590;10.002;2022-07-17T06:03:25;4.30;;;2.00;;
17345;SDS011;8790;53.590;10.002;2022-07-17T06:05:59;6.33;;;2.23;;
17345;SDS011;8790;53.590;10.002;2022-07-17T06:08:31;2.90;;;1.70;;
17345;SDS011;8790;53.590;10.002;2022-07-17T06:11:04;5.73;;;2.00;;
17345;SDS011;8790;53.590;10.002;2022-07-17T06:13:36;3.83;;;1.60;;
17345;SDS011;8790;53.590;10.002;2022-07-17T06:16:07;3.20;;;1.73;;
17345;SDS011;8790;53.590;10.002;2022-07-17T06:18:39;4.57;;;1.90;;
17345;SDS011;8790;53.590;10.002;2022-07-17T06:21:11;6.80;;;1.70;;
17345;SDS011;8790;53.590;10.002;2022-07-17T06:23:43;4.37;;;2.03;;
17345;SDS011;8790;53.590;10.002;2022-07-17T06:26:16;4.97;;;2.10;;
17345;SDS011;8790;53.590;10.002;2022-07-17T06:28:47;3.47;;;1.80;;
17345;SDS011;8790;53.590;10.002;2022-07-17T06:31:19;4.93;;;2.10;;
17345;SDS011;8790;53.590;10.002;2022-07-17T06:33:52;4.33;;;1.83;;
17345;SDS011;8790;53.590;10.002;2022-07-17T06:36:24;5.00;;;1.80;;
17345;SDS011;8790;53.590;10.002;2022-07-17T06:38:55;5.10;;;1.77;;
17345;SDS011;8790;53.590;10.002;2022-07-17T06:41:28;3.63;;;1.70;;
17345;SDS011;8790;53.590;10.002;2022-07-17T06:44:00;4.57;;;1.50;;
17345;SDS011;8790;53.590;10.002;2022-07-17T06:46:32;2.30;;;1.67;;
17345;SDS011;8790;53.590;10.002;2022-07-17T06:49:03;4.40;;;2.20;;
17345;SDS011;8790;53.590;10.002;2022-07-17T06:51:35;4.03;;;2.07;;
17345;SDS011;8790;53.590;10.002;2022-07-17T06:54:07;3.20;;;1.70;;
17345;SDS011;8790;53.590;10.002;2022-07-17T06:56:42;3.20;;;1.77;;
17345;SDS011;8790;53.590;10.002;2022-07-17T06:59:14;4.60;;;1.97;;
17345;SDS011;8790;53.590;10.002;2022-07-17T07:01:45;3.73;;;1.80;;
17345;SDS011;8790;53.590;10.002;2022-07-17T07:04:17;3.50;;;1.60;;
17345;SDS011;8790;53.590;10.002;2022-07-17T07:06:49;4.33;;;1.80;;
17345;SDS011;8790;53.590;10.002;2022-07-17T07:09:20;5.60;;;2.00;;
17345;SDS011;8790;53.590;10.002;2022-07-17T07:11:53;4.33;;;2.00;;
17345;SDS011;8790;53.590;10.002;2022-07-17T07:14:25;5.17;;;1.73;;
17345;SDS011;8790;53.590;10.002;2022-07-17T07:16:57;6.37;;;2.00;;
17345;SDS011;8790;53.590;10.002;2022-07-17T07:19:28;4.63;;;1.90;;
17345;SDS011;8790;53.590;10.002;2022-07-17T07:22:00;4.40;;;1.90;;
17345;SDS011;8790;53.590;10.002;2022-07-17T07:24:32;4.67;;;2.00;;
17345;SDS011;8790;53.590;10.002;2022-07-17T07:27:04;5.30;;;1.80;;
17345;SDS011;8790;53.590;10.002;2022-07-17T07:29:36;7.93;;;2.03;;
17345;SDS011;8790;53.590;10.002;2022-07-17T07:32:08;7.33;;;2.00;;
17345;SDS011;8790;53.590;10.002;2022-07-17T07:34:39;5.40;;;1.80;;
17345;SDS011;8790;53.590;10.002;2022-07-17T07:37:11;5.93;;;1.83;;
17345;SDS011;8790;53.590;10.002;2022-07-17T07:39:43;4.77;;;1.57;;
17345;SDS011;8790;53.590;10.002;2022-07-17T07:42:16;6.77;;;1.60;;
17345;SDS011;8790;53.590;10.002;2022-07-17T07:44:48;4.37;;;1.70;;
17345;SDS011;8790;53.590;10.002;2022-07-17T07:47:19;4.10;;;1.57;;
17345;SDS011;8790;53.590;10.002;2022-07-17T07:49:51;4.68;;;2.00;;
17345;SDS011;8790;53.590;10.002;2022-07-17T07:52:22;4.13;;;1.80;;
17345;SDS011;8790;53.590;10.002;2022-07-17T07:54:54;6.22;;;1.88;;
17345;SDS011;8790;53.590;10.002;2022-07-17T07:57:27;3.40;;;1.50;;
17345;SDS011;8790;53.590;10.002;2022-07-17T07:59:59;4.70;;;2.10;;
17345;SDS011;8790;53.590;10.002;2022-07-17T08:02:30;3.10;;;1.80;;
17345;SDS011;8790;53.590;10.002;2022-07-17T08:05:02;4.53;;;2.00;;
17345;SDS011;8790;53.590;10.002;2022-07-17T08:07:35;5.18;;;1.92;;
17345;SDS011;8790;53.590;10.002;2022-07-17T08:10:07;5.05;;;1.85;;
17345;SDS011;8790;53.590;10.002;2022-07-17T08:12:40;5.57;;;2.07;;
17345;SDS011;8790;53.590;10.002;2022-07-17T08:15:12;6.82;;;1.98;;
17345;SDS011;8790;53.590;10.002;2022-07-17T08:17:45;7.32;;;2.13;;
17345;SDS011;8790;53.590;10.002;2022-07-17T08:20:18;5.72;;;2.10;;
17345;SDS011;8790;53.590;10.002;2022-07-17T08:22:50;4.63;;;2.03;;
17345;SDS011;8790;53.590;10.002;2022-07-17T08:25:22;4.47;;;1.80;;
17345;SDS011;8790;53.590;10.002;2022-07-17T08:27:55;5.37;;;1.80;;
17345;SDS011;8790;53.590;10.002;2022-07-17T08:30:27;6.53;;;2.00;;
17345;SDS011;8790;53.590;10.002;2022-07-17T08:33:01;5.60;;;2.10;;
17345;SDS011;8790;53.590;10.002;2022-07-17T08:35:33;3.42;;;1.88;;
17345;SDS011;8790;53.590;10.002;2022-07-17T08:38:05;5.82;;;1.98;;
17345;SDS011;8790;53.590;10.002;2022-07-17T08:40:38;4.53;;;2.00;;
17345;SDS011;8790;53.590;10.002;2022-07-17T08:43:14;3.80;;;1.85;;
17345;SDS011;8790;53.590;10.002;2022-07-17T08:45:47;3.38;;;1.85;;
17345;SDS011;8790;53.590;10.002;2022-07-17T08:48:19;4.18;;;1.98;;
17345;SDS011;8790;53.590;10.002;2022-07-17T08:50:51;4.53;;;1.55;;
17345;SDS011;8790;53.590;10.002;2022-07-17T08:53:25;2.70;;;1.70;;
17345;SDS011;8790;53.590;10.002;2022-07-17T08:55:57;3.80;;;1.70;;
17345;SDS011;8790;53.590;10.002;2022-07-17T08:58:30;4.97;;;1.80;;
17345;SDS011;8790;53.590;10.002;2022-07-17T09:01:02;5.50;;;1.90;;
17345;SDS011;8790;53.590;10.002;2022-07-17T09:03:34;4.03;;;1.63;;
17345;SDS011;8790;53.590;10.002;2022-07-17T09:06:16;5.03;;;1.75;;
17345;SDS011;8790;53.590;10.002;2022-07-17T09:08:48;6.97;;;2.05;;
17345;SDS011;8790;53.590;10.002;2022-07-17T09:11:41;3.63;;;1.67;;
17345;SDS011;8790;53.590;10.002;2022-07-17T09:14:15;4.85;;;1.65;;
17345;SDS011;8790;53.590;10.002;2022-07-17T09:16:48;6.47;;;1.85;;
17345;SDS011;8790;53.590;10.002;2022-07-17T09:19:24;2.75;;;1.70;;
17345;SDS011;8790;53.590;10.002;2022-07-17T09:22:04;4.13;;;1.60;;
17345;SDS011;8790;53.590;10.002;2022-07-17T09:24:42;3.45;;;1.60;;
17345;SDS011;8790;53.590;10.002;2022-07-17T09:27:27;4.72;;;1.70;;
17345;SDS011;8790;53.590;10.002;2022-07-17T09:30:03;3.03;;;1.40;;
17345;SDS011;8790;53.590;10.002;2022-07-17T09:32:37;3.97;;;1.73;;
17345;SDS011;8790;53.590;10.002;2022-07-17T09:35:11;4.65;;;1.77;;
17345;SDS011;8790;53.590;10.002;2022-07-17T09:37:42;2.95;;;1.60;;
17345;SDS011;8790;53.590;10.002;2022-07-17T09:40:15;2.70;;;1.50;;
17345;SDS011;8790;53.590;10.002;2022-07-17T09:43:18;3.28;;;1.50;;
17345;SDS011;8790;53.590;10.002;2022-07-17T09:45:51;3.10;;;1.50;;
17345;SDS011;8790;53.590;10.002;2022-07-17T09:48:23;4.47;;;1.58;;
17345;SDS011;8790;53.590;10.002;2022-07-17T09:50:54;4.15;;;1.50;;
17345;SDS011;8790;53.590;10.002;2022-07-17T09:53:26;4.65;;;1.67;;
17345;SDS011;8790;53.590;10.002;2022-07-17T09:55:58;4.47;;;1.35;;
17345;SDS011;8790;53.590;10.002;2022-07-17T09:58:32;3.80;;;1.40;;
17345;SDS011;8790;53.590;10.002;2022-07-17T10:01:07;6.13;;;1.70;;
17345;SDS011;8790;53.590;10.002;2022-07-17T10:03:40;3.55;;;1.20;;
17345;SDS011;8790;53.590;10.002;2022-07-17T10:06:12;5.50;;;1.33;;
17345;SDS011;8790;53.590;10.002;2022-07-17T10:08:44;2.58;;;1.23;;
17345;SDS011;8790;53.590;10.002;2022-07-17T10:11:15;4.63;;;1.45;;
17345;SDS011;8790;53.590;10.002;2022-07-17T10:13:51;4.00;;;1.50;;
17345;SDS011;8790;53.590;10.002;2022-07-17T10:16:27;2.92;;;1.30;;
17345;SDS011;8790;53.590;10.002;2022-07-17T10:19:02;6.22;;;1.33;;
17345;SDS011;8790;53.590;10.002;2022-07-17T10:21:35;2.60;;;1.30;;
17345;SDS011;8790;53.590;10.002;2022-07-17T10:24:08;3.42;;;1.20;;
17345;SDS011;8790;53.590;10.002;2022-07-17T10:26:43;4.45;;;1.50;;
17345;SDS011;8790;53.590;10.002;2022-07-17T10:29:26;4.15;;;1.50;;
17345;SDS011;8790;53.590;10.002;2022-07-17T10:32:01;3.35;;;1.27;;
17345;SDS011;8790;53.590;10.002;2022-07-17T10:34:36;3.10;;;1.30;;
17345;SDS011;8790;53.590;10.002;2022-07-17T10:37:16;2.25;;;1.40;;
17345;SDS011;8790;53.590;10.002;2022-07-17T10:39:56;3.33;;;1.45;;
17345;SDS011;8790;53.590;10.002;2022-07-17T10:45:27;3.47;;;1.52;;
17345;SDS011;8790;53.590;10.002;2022-07-17T10:48:06;4.60;;;1.60;;
17345;SDS011;8790;53.590;10.002;2022-07-17T10:50:40;4.88;;;1.60;;
17345;SDS011;8790;53.590;10.002;2022-07-17T10:53:14;3.47;;;1.42;;
17345;SDS011;8790;53.590;10.002;2022-07-17T10:55:49;3.70;;;1.17;;
17345;SDS011;8790;53.590;10.002;2022-07-17T10:58:24;3.08;;;1.30;;
17345;SDS011;8790;53.590;10.002;2022-07-17T11:00:58;3.33;;;1.30;;
17345;SDS011;8790;53.590;10.002;2022-07-17T11:03:35;4.18;;;1.83;;
17345;SDS011;8790;53.590;10.002;2022-07-17T11:06:09;3.30;;;1.70;;
17345;SDS011;8790;53.590;10.002;2022-07-17T11:08:45;3.95;;;1.80;;
17345;SDS011;8790;53.590;10.002;2022-07-17T11:11:20;3.55;;;1.70;;
17345;SDS011;8790;53.590;10.002;2022-07-17T11:13:53;4.13;;;1.63;;
17345;SDS011;8790;53.590;10.002;2022-07-17T11:16:26;2.38;;;1.33;;
17345;SDS011;8790;53.590;10.002;2022-07-17T11:19:00;3.03;;;1.20;;
17345;SDS011;8790;53.590;10.002;2022-07-17T11:21:32;5.80;;;1.50;;
17345;SDS011;8790;53.590;10.002;2022-07-17T11:24:05;4.68;;;1.50;;
17345;SDS011;8790;53.590;10.002;2022-07-17T11:26:37;4.68;;;1.40;;
17345;SDS011;8790;53.590;10.002;2022-07-17T11:29:09;3.50;;;1.33;;
17345;SDS011;8790;53.590;10.002;2022-07-17T11:31:41;2.92;;;1.48;;
17345;SDS011;8790;53.590;10.002;2022-07-17T11:34:15;3.08;;;1.38;;
17345;SDS011;8790;53.590;10.002;2022-07-17T11:36:46;3.47;;;1.30;;
17345;SDS011;8790;53.590;10.002;2022-07-17T11:39:18;3.42;;;1.17;;
17345;SDS011;8790;53.590;10.002;2022-07-17T11:41:51;2.28;;;1.45;;
17345;SDS011;8790;53.590;10.002;2022-07-17T11:44:24;3.10;;;1.50;;
17345;SDS011;8790;53.590;10.002;2022-07-17T11:46:56;3.65;;;1.48;;
17345;SDS011;8790;53.590;10.002;2022-07-17T11:49:29;3.47;;;1.60;;
17345;SDS011;8790;53.590;10.002;2022-07-17T11:52:06;2.65;;;1.10;;
17345;SDS011;8790;53.590;10.002;2022-07-17T11:54:43;2.90;;;1.50;;
17345;SDS011;8790;53.590;10.002;2022-07-17T11:57:17;2.53;;;1.63;;
17345;SDS011;8790;53.590;10.002;2022-07-17T11:59:49;4.40;;;1.13;;
17345;SDS011;8790;53.590;10.002;2022-07-17T12:02:27;3.55;;;1.33;;
17345;SDS011;8790;53.590;10.002;2022-07-17T12:05:03;2.97;;;1.42;;
17345;SDS011;8790;53.590;10.002;2022-07-17T12:07:39;4.32;;;1.55;;
17345;SDS011;8790;53.590;10.002;2022-07-17T12:10:15;4.97;;;1.40;;
17345;SDS011;8790;53.590;10.002;2022-07-17T12:12:53;2.53;;;1.30;;
17345;SDS011;8790;53.590;10.002;2022-07-17T12:15:36;3.20;;;1.30;;
17345;SDS011;8790;53.590;10.002;2022-07-17T12:18:19;3.72;;;1.50;;
17345;SDS011;8790;53.590;10.002;2022-07-17T12:20:57;2.85;;;1.27;;
17345;SDS011;8790;53.590;10.002;2022-07-17T12:23:33;2.22;;;1.23;;
17345;SDS011;8790;53.590;10.002;2022-07-17T12:26:08;2.88;;;1.45;;
17345;SDS011;8790;53.590;10.002;2022-07-17T12:28:41;3.47;;;1.40;;
17345;SDS011;8790;53.590;10.002;2022-07-17T12:31:13;3.88;;;1.25;;
17345;SDS011;8790;53.590;10.002;2022-07-17T12:33:45;2.80;;;1.17;;
17345;SDS011;8790;53.590;10.002;2022-07-17T12:36:20;3.63;;;1.23;;
17345;SDS011;8790;53.590;10.002;2022-07-17T12:38:52;3.78;;;1.17;;
17345;SDS011;8790;53.590;10.002;2022-07-17T12:41:25;2.42;;;1.23;;
17345;SDS011;8790;53.590;10.002;2022-07-17T12:43:57;2.83;;;1.20;;
17345;SDS011;8790;53.590;10.002;2022-07-17T12:46:29;2.13;;;1.23;;
17345;SDS011;8790;53.590;10.002;2022-07-17T12:49:00;5.18;;;1.50;;
17345;SDS011;8790;53.590;10.002;2022-07-17T12:51:33;3.40;;;1.20;;
17345;SDS011;8790;53.590;10.002;2022-07-17T12:54:05;3.42;;;1.48;;
17345;SDS011;8790;53.590;10.002;2022-07-17T12:56:37;2.53;;;1.23;;
17345;SDS011;8790;53.590;10.002;2022-07-17T12:59:09;2.70;;;1.20;;
17345;SDS011;8790;53.590;10.002;2022-07-17T13:01:40;2.10;;;1.17;;
17345;SDS011;8790;53.590;10.002;2022-07-17T13:04:13;4.35;;;1.27;;
17345;SDS011;8790;53.590;10.002;2022-07-17T13:06:46;1.90;;;1.10;;
17345;SDS011;8790;53.590;10.002;2022-07-17T13:09:18;4.50;;;2.22;;
17345;SDS011;8790;53.590;10.002;2022-07-17T13:11:50;2.47;;;1.65;;
17345;SDS011;8790;53.590;10.002;2022-07-17T13:14:22;2.72;;;1.40;;
17345;SDS011;8790;53.590;10.002;2022-07-17T13:16:53;2.28;;;1.30;;
17345;SDS011;8790;53.590;10.002;2022-07-17T13:19:25;2.45;;;1.20;;
17345;SDS011;8790;53.590;10.002;2022-07-17T13:21:58;2.42;;;1.40;;
17345;SDS011;8790;53.590;10.002;2022-07-17T13:24:31;3.40;;;1.17;;
17345;SDS011;8790;53.590;10.002;2022-07-17T13:27:03;3.15;;;1.20;;
17345;SDS011;8790;53.590;10.002;2022-07-17T13:29:35;2.65;;;1.20;;
17345;SDS011;8790;53.590;10.002;2022-07-17T13:32:07;3.65;;;1.45;;
17345;SDS011;8790;53.590;10.002;2022-07-17T13:34:39;1.42;;;1.05;;
17345;SDS011;8790;53.590;10.002;2022-07-17T13:37:12;3.83;;;0.90;;
17345;SDS011;8790;53.590;10.002;2022-07-17T13:39:44;2.65;;;1.17;;
17345;SDS011;8790;53.590;10.002;2022-07-17T13:42:15;2.63;;;1.08;;
17345;SDS011;8790;53.590;10.002;2022-07-17T13:44:47;1.58;;;1.00;;
17345;SDS011;8790;53.590;10.002;2022-07-17T13:47:19;2.13;;;1.00;;
17345;SDS011;8790;53.590;10.002;2022-07-17T13:49:51;3.85;;;1.20;;
17345;SDS011;8790;53.590;10.002;2022-07-17T13:52:24;2.83;;;1.20;;
17345;SDS011;8790;53.590;10.002;2022-07-17T13:54:56;3.05;;;0.98;;
17345;SDS011;8790;53.590;10.002;2022-07-17T13:57:27;2.50;;;1.17;;
17345;SDS011;8790;53.590;10.002;2022-07-17T13:59:59;1.77;;;1.20;;
17345;SDS011;8790;53.590;10.002;2022-07-17T14:02:31;2.17;;;1.40;;
17345;SDS011;8790;53.590;10.002;2022-07-17T14:05:05;3.35;;;1.20;;
17345;SDS011;8790;53.590;10.002;2022-07-17T14:07:39;3.00;;;1.15;;
17345;SDS011;8790;53.590;10.002;2022-07-17T14:10:11;2.42;;;1.40;;
17345;SDS011;8790;53.590;10.002;2022-07-17T14:12:43;5.18;;;3.88;;
17345;SDS011;8790;53.590;10.002;2022-07-17T14:15:14;2.65;;;1.45;;
17345;SDS011;8790;53.590;10.002;2022-07-17T14:17:46;2.63;;;1.20;;
17345;SDS011;8790;53.590;10.002;2022-07-17T14:20:18;1.77;;;1.17;;
17345;SDS011;8790;53.590;10.002;2022-07-17T14:22:51;2.00;;;1.50;;
17345;SDS011;8790;53.590;10.002;2022-07-17T14:25:22;2.33;;;1.40;;
17345;SDS011;8790;53.590;10.002;2022-07-17T14:27:54;2.47;;;1.58;;
17345;SDS011;8790;53.590;10.002;2022-07-17T14:30:27;2.63;;;1.55;;
17345;SDS011;8790;53.590;10.002;2022-07-17T14:32:58;2.47;;;1.48;;
17345;SDS011;8790;53.590;10.002;2022-07-17T14:35:31;2.05;;;1.27;;
17345;SDS011;8790;53.590;10.002;2022-07-17T14:38:04;1.70;;;1.30;;
17345;SDS011;8790;53.590;10.002;2022-07-17T14:40:37;1.48;;;1.23;;
17345;SDS011;8790;53.590;10.002;2022-07-17T14:43:08;2.85;;;1.30;;
17345;SDS011;8790;53.590;10.002;2022-07-17T14:45:40;2.65;;;1.40;;
17345;SDS011;8790;53.590;10.002;2022-07-17T14:48:12;1.73;;;1.33;;
17345;SDS011;8790;53.590;10.002;2022-07-17T14:50:43;2.00;;;1.50;;
17345;SDS011;8790;53.590;10.002;2022-07-17T14:53:16;3.88;;;1.33;;
17345;SDS011;8790;53.590;10.002;2022-07-17T14:55:48;3.17;;;1.40;;
17345;SDS011;8790;53.590;10.002;2022-07-17T14:58:20;1.95;;;1.38;;
17345;SDS011;8790;53.590;10.002;2022-07-17T15:00:51;1.63;;;1.52;;
17345;SDS011;8790;53.590;10.002;2022-07-17T15:03:23;2.08;;;1.52;;
17345;SDS011;8790;53.590;10.002;2022-07-17T15:05:55;1.98;;;1.60;;
17345;SDS011;8790;53.590;10.002;2022-07-17T15:08:29;2.50;;;1.50;;
17345;SDS011;8790;53.590;10.002;2022-07-17T15:11:01;2.53;;;1.65;;
17345;SDS011;8790;53.590;10.002;2022-07-17T15:13:33;3.67;;;1.80;;
17345;SDS011;8790;53.590;10.002;2022-07-17T15:16:05;3.40;;;1.70;;
17345;SDS011;8790;53.590;10.002;2022-07-17T15:18:37;2.58;;;2.03;;
17345;SDS011;8790;53.590;10.002;2022-07-17T15:21:09;2.40;;;1.90;;
17345;SDS011;8790;53.590;10.002;2022-07-17T15:23:42;3.15;;;1.80;;